createdAt,value
2022-11-29T00:01:05.159Z,19.80
2022-11-29T00:03:32.209Z,20.87
2022-11-29T00:06:14.599Z,19.47
2022-11-29T00:08:42.620Z,18.53
2022-11-29T00:11:35.728Z,21.50
2022-11-29T00:14:02.766Z,19.80
2022-11-29T00:16:30.115Z,19.20
2022-11-29T00:18:56.979Z,20.60
2022-11-29T00:21:23.937Z,21.37
2022-11-29T00:23:50.596Z,21.60
2022-11-29T00:26:17.368Z,20.50
2022-11-29T00:28:44.096Z,21.37
2022-11-29T00:31:19.826Z,20.90
2022-11-29T00:33:46.885Z,22.57
2022-11-29T00:36:13.676Z,22.97
2022-11-29T00:38:40.621Z,23.80
2022-11-29T00:41:07.711Z,22.57
2022-11-29T00:43:34.617Z,23.70
2022-11-29T00:46:01.962Z,23.73
2022-11-29T00:48:28.861Z,25.43
2022-11-29T00:50:55.641Z,25.70
2022-11-29T00:53:22.524Z,26.80
2022-11-29T00:55:51.074Z,24.23
2022-11-29T00:58:18.059Z,25.63
2022-11-29T01:00:44.916Z,26.53
2022-11-29T01:03:11.811Z,28.00
2022-11-29T01:05:38.462Z,27.80
2022-11-29T01:08:05.414Z,28.03
2022-11-29T01:10:32.395Z,27.13
2022-11-29T01:12:59.027Z,28.30
2022-11-29T01:15:25.627Z,27.97
2022-11-29T01:17:53.329Z,27.10
2022-11-29T01:20:20.573Z,29.20
2022-11-29T01:22:47.192Z,27.47
2022-11-29T01:25:14.110Z,29.90
2022-11-29T01:27:41.302Z,26.60
2022-11-29T01:30:09.602Z,25.50
2022-11-29T01:32:36.884Z,26.23
2022-11-29T01:35:05.458Z,29.07
2022-11-29T01:37:32.385Z,28.27
2022-11-29T01:39:59.000Z,26.70
2022-11-29T01:42:25.608Z,28.03
2022-11-29T01:45:26.112Z,25.23
2022-11-29T01:47:56.504Z,25.87
2022-11-29T01:50:23.143Z,27.93
2022-11-29T01:52:49.850Z,27.03
2022-11-29T01:55:16.715Z,27.07
2022-11-29T01:57:44.120Z,27.10
2022-11-29T02:00:14.755Z,28.40
2022-11-29T02:02:46.352Z,25.47
2022-11-29T02:05:14.923Z,23.50
2022-11-29T02:07:45.738Z,23.97
2022-11-29T02:10:15.212Z,21.67
2022-11-29T02:13:00.864Z,23.43
2022-11-29T02:15:49.030Z,22.23
2022-11-29T02:18:27.733Z,25.07
2022-11-29T02:21:14.393Z,26.97
2022-11-29T02:24:01.323Z,23.80
2022-11-29T02:27:02.444Z,25.20
2022-11-29T02:29:49.936Z,29.40
2022-11-29T02:32:34.758Z,26.03
2022-11-29T02:35:28.851Z,26.40
2022-11-29T02:38:36.106Z,34.53
2022-11-29T02:41:27.366Z,27.30
2022-11-29T02:44:21.997Z,34.30
2022-11-29T02:47:08.021Z,30.83
2022-11-29T02:49:55.985Z,26.63
2022-11-29T02:52:48.544Z,29.47
2022-11-29T02:55:29.526Z,27.23
2022-11-29T02:58:05.588Z,52.50
2022-11-29T03:00:35.407Z,43.53
2022-11-29T03:03:23.992Z,48.77
2022-11-29T03:06:21.277Z,30.60
2022-11-29T03:09:00.632Z,25.30
2022-11-29T03:11:41.037Z,26.50
2022-11-29T03:14:51.242Z,35.97
2022-11-29T03:17:34.121Z,59.17
2022-11-29T03:20:28.946Z,59.47
2022-11-29T03:23:18.827Z,31.50
2022-11-29T03:26:04.407Z,41.00
2022-11-29T03:29:06.989Z,42.80
2022-11-29T03:31:40.026Z,47.00
2022-11-29T03:34:36.017Z,48.20
2022-11-29T03:37:32.885Z,44.47
2022-11-29T03:40:07.694Z,33.10
2022-11-29T03:42:54.885Z,42.20
2022-11-29T03:45:29.226Z,33.17
2022-11-29T03:48:05.049Z,37.23
2022-11-29T03:50:54.560Z,35.07
2022-11-29T03:53:33.342Z,42.07
2022-11-29T03:56:38.423Z,34.87
2022-11-29T03:59:12.173Z,49.63
2022-11-29T04:02:21.085Z,44.83
2022-11-29T04:05:19.513Z,31.80
2022-11-29T04:08:36.338Z,31.80
2022-11-29T04:11:24.522Z,50.07
2022-11-29T04:13:57.673Z,35.97
2022-11-29T04:16:41.097Z,33.37
2022-11-29T04:19:41.695Z,67.07
2022-11-29T04:22:32.624Z,46.00
2022-11-29T04:25:53.653Z,37.93
2022-11-29T04:29:02.087Z,71.57
2022-11-29T04:31:45.577Z,57.63
2022-11-29T04:34:38.593Z,36.50
2022-11-29T04:37:53.321Z,34.37
2022-11-29T04:40:49.402Z,32.27
2022-11-29T04:44:00.774Z,35.93
2022-11-29T04:47:11.843Z,47.87
2022-11-29T04:49:47.597Z,34.53
2022-11-29T04:52:27.149Z,34.53
2022-11-29T04:55:31.419Z,34.40
2022-11-29T04:58:14.332Z,41.87
2022-11-29T05:00:55.116Z,36.27
2022-11-29T05:03:35.262Z,39.63
2022-11-29T05:06:20.227Z,57.63
2022-11-29T05:09:24.376Z,41.27
2022-11-29T05:12:05.229Z,37.07
2022-11-29T05:14:53.177Z,52.10
2022-11-29T05:17:44.900Z,38.47
2022-11-29T05:20:41.928Z,57.40
2022-11-29T05:23:49.963Z,33.80
2022-11-29T05:26:57.351Z,33.40
2022-11-29T05:29:45.451Z,54.60
2022-11-29T05:32:53.933Z,32.50
2022-11-29T05:35:40.821Z,41.80
2022-11-29T05:38:32.801Z,48.07
2022-11-29T05:41:28.360Z,32.07
2022-11-29T05:44:10.267Z,53.50
2022-11-29T05:46:46.092Z,40.43
2022-11-29T05:49:30.939Z,43.70
2022-11-29T05:51:57.513Z,65.30
2022-11-29T05:54:31.179Z,48.57
2022-11-29T05:57:28.853Z,55.30
2022-11-29T05:59:57.337Z,33.70
2022-11-29T06:02:50.982Z,33.50
2022-11-29T06:05:28.710Z,56.47
2022-11-29T06:08:08.289Z,35.83
2022-11-29T06:10:39.911Z,32.70
2022-11-29T06:13:21.837Z,32.80
2022-11-29T06:16:06.833Z,43.77
2022-11-29T06:18:39.171Z,27.70
2022-11-29T06:21:25.587Z,42.17
2022-11-29T06:24:18.582Z,32.30
2022-11-29T06:26:54.568Z,26.43
2022-11-29T06:29:33.423Z,29.63
2022-11-29T06:32:12.920Z,28.73
2022-11-29T06:34:53.343Z,25.80
2022-11-29T06:37:23.723Z,27.53
2022-11-29T06:39:50.592Z,26.20
2022-11-29T06:42:17.325Z,24.80
2022-11-29T06:44:44.533Z,28.13
2022-11-29T06:47:39.532Z,35.00
2022-11-29T06:50:30.053Z,32.37
2022-11-29T06:53:08.588Z,42.30
2022-11-29T06:56:07.878Z,29.67
2022-11-29T06:58:58.814Z,52.93
2022-11-29T07:01:34.023Z,49.87
2022-11-29T07:04:45.462Z,35.80
2022-11-29T07:07:20.027Z,38.33
2022-11-29T07:09:50.252Z,40.20
2022-11-29T07:12:17.719Z,49.97
2022-11-29T07:14:45.336Z,42.40
2022-11-29T07:17:38.467Z,38.67
2022-11-29T07:20:35.532Z,41.00
2022-11-29T07:23:25.368Z,38.93
2022-11-29T07:26:12.266Z,42.30
2022-11-29T07:28:59.839Z,44.47
2022-11-29T07:32:04.137Z,47.07
2022-11-29T07:34:54.876Z,45.93
2022-11-29T07:37:43.976Z,50.73
2022-11-29T07:40:37.726Z,52.50
2022-11-29T07:43:19.180Z,53.97
2022-11-29T07:45:45.889Z,50.60
2022-11-29T07:48:13.330Z,51.13
2022-11-29T07:50:40.917Z,47.90
2022-11-29T07:53:09.236Z,50.27
2022-11-29T07:55:36.937Z,48.67
2022-11-29T07:58:03.532Z,48.00
2022-11-29T08:00:30.200Z,44.20
2022-11-29T08:02:56.784Z,43.97
2022-11-29T08:05:23.910Z,42.87
2022-11-29T08:07:51.540Z,43.37
2022-11-29T08:10:18.181Z,37.87
2022-11-29T08:12:48.519Z,40.33
2022-11-29T08:15:15.735Z,43.23
2022-11-29T08:17:42.407Z,40.43
2022-11-29T08:20:10.442Z,41.53
2022-11-29T08:22:37.235Z,42.13
2022-11-29T08:25:04.959Z,38.70
2022-11-29T08:27:31.870Z,42.37
2022-11-29T08:29:58.629Z,39.93
2022-11-29T08:32:26.328Z,38.67
2022-11-29T08:34:53.037Z,38.00
2022-11-29T08:37:19.729Z,37.57
2022-11-29T08:39:46.320Z,38.30
2022-11-29T08:42:13.064Z,41.97
2022-11-29T08:44:39.813Z,39.97
2022-11-29T08:47:25.213Z,40.70
2022-11-29T08:50:01.092Z,39.90
2022-11-29T08:52:51.480Z,41.00
2022-11-29T08:55:20.069Z,40.00
2022-11-29T08:57:48.130Z,39.37
2022-11-29T09:00:15.453Z,40.70
2022-11-29T09:02:42.199Z,40.80
2022-11-29T09:05:10.775Z,38.67
2022-11-29T09:07:38.098Z,41.73
2022-11-29T09:10:08.078Z,42.00
2022-11-29T09:12:36.133Z,37.20
2022-11-29T09:15:05.339Z,37.27
2022-11-29T09:17:32.060Z,35.17
2022-11-29T09:19:58.644Z,31.50
2022-11-29T09:22:25.683Z,32.73
2022-11-29T09:24:52.273Z,32.83
2022-11-29T09:27:18.929Z,32.47
2022-11-29T09:29:45.599Z,30.83
2022-11-29T09:32:12.218Z,30.87
2022-11-29T09:34:38.823Z,30.40
2022-11-29T09:37:05.862Z,27.73
2022-11-29T09:39:32.574Z,26.10
2022-11-29T09:42:34.645Z,27.63
2022-11-29T09:45:09.657Z,26.50
2022-11-29T09:48:23.138Z,27.30
2022-11-29T09:51:06.402Z,29.90
2022-11-29T09:53:43.675Z,26.83
2022-11-29T09:56:44.582Z,29.30
2022-11-29T09:59:27.341Z,27.10
2022-11-29T10:02:04.222Z,28.77
2022-11-29T10:04:40.262Z,25.80
2022-11-29T10:07:17.738Z,25.80
2022-11-29T10:09:56.816Z,25.70
2022-11-29T10:12:40.660Z,24.80
2022-11-29T10:15:21.057Z,25.00
2022-11-29T10:17:47.622Z,26.00
2022-11-29T10:20:22.593Z,26.60
2022-11-29T10:23:10.909Z,26.30
2022-11-29T10:25:49.718Z,28.00
2022-11-29T10:28:19.717Z,28.97
2022-11-29T10:30:46.957Z,33.30
2022-11-29T10:33:20.968Z,31.20
2022-11-29T10:35:50.778Z,30.07
2022-11-29T10:38:33.212Z,29.47
2022-11-29T10:41:10.750Z,30.57
2022-11-29T10:43:38.337Z,32.23
2022-11-29T10:46:09.396Z,30.20
2022-11-29T10:48:36.076Z,29.80
2022-11-29T10:51:03.318Z,31.37
2022-11-29T10:53:36.949Z,29.83
2022-11-29T10:56:30.973Z,27.77
2022-11-29T10:59:04.960Z,32.53
2022-11-29T11:01:33.618Z,30.93
2022-11-29T11:04:03.113Z,32.40
2022-11-29T11:07:06.081Z,34.13
2022-11-29T11:09:40.328Z,35.40
2022-11-29T11:12:16.164Z,33.87
2022-11-29T11:14:45.642Z,33.67
2022-11-29T11:17:26.221Z,33.37
2022-11-29T11:20:20.185Z,32.27
2022-11-29T11:23:32.519Z,31.60
2022-11-29T11:26:02.825Z,32.40
2022-11-29T11:28:49.936Z,30.00
2022-11-29T11:31:26.734Z,32.70
2022-11-29T11:33:53.529Z,31.13
2022-11-29T11:36:20.081Z,29.20
2022-11-29T11:39:11.229Z,26.90
2022-11-29T11:42:06.418Z,30.30
2022-11-29T11:44:49.359Z,31.87
2022-11-29T11:47:20.840Z,32.20
2022-11-29T11:50:02.449Z,36.97
2022-11-29T11:52:39.582Z,31.13
2022-11-29T11:55:23.115Z,37.13
2022-11-29T11:58:09.673Z,35.03
2022-11-29T12:01:03.888Z,34.80
2022-11-29T12:03:34.903Z,32.30
2022-11-29T12:06:23.104Z,35.60
2022-11-29T12:08:51.079Z,31.93
2022-11-29T12:11:19.852Z,31.90
2022-11-29T12:13:53.821Z,35.97
2022-11-29T12:16:29.362Z,36.70
2022-11-29T12:19:07.561Z,35.17
2022-11-29T12:21:40.335Z,34.03
2022-11-29T12:24:33.015Z,34.57
2022-11-29T12:27:04.806Z,34.17
2022-11-29T12:29:34.262Z,34.90
2022-11-29T12:32:25.547Z,38.10
2022-11-29T12:34:55.266Z,40.53
2022-11-29T12:37:34.451Z,39.50
2022-11-29T12:40:41.538Z,45.43
2022-11-29T12:43:24.899Z,45.30
2022-11-29T12:46:08.939Z,48.27
2022-11-29T12:49:09.077Z,43.03
2022-11-29T12:52:03.135Z,44.10
2022-11-29T12:54:38.578Z,41.07
2022-11-29T12:57:20.849Z,45.70
2022-11-29T13:00:01.017Z,41.30
2022-11-29T13:02:36.708Z,40.77
2022-11-29T13:05:19.419Z,38.50
2022-11-29T13:08:07.220Z,41.00
2022-11-29T13:10:39.801Z,40.70
2022-11-29T13:13:38.706Z,42.07
2022-11-29T13:16:31.420Z,43.03
2022-11-29T13:19:07.928Z,40.93
2022-11-29T13:21:46.212Z,42.37
2022-11-29T13:24:16.677Z,41.83
2022-11-29T13:26:44.170Z,40.40
2022-11-29T13:29:17.993Z,42.70
2022-11-29T13:31:46.617Z,45.53
2022-11-29T13:34:40.651Z,45.20
2022-11-29T13:37:26.154Z,46.17
2022-11-29T13:39:55.731Z,48.50
2022-11-29T13:42:22.331Z,48.23
2022-11-29T13:45:10.547Z,49.57
2022-11-29T13:47:59.917Z,48.70
2022-11-29T13:50:42.821Z,48.83
2022-11-29T13:53:17.082Z,50.73
2022-11-29T13:56:00.208Z,49.50
2022-11-29T13:58:35.137Z,48.20
2022-11-29T14:01:05.603Z,48.00
2022-11-29T14:03:42.237Z,48.67
2022-11-29T14:06:23.406Z,50.60
2022-11-29T14:09:17.915Z,50.93
2022-11-29T14:11:42.100Z,50.30
2022-11-29T14:14:34.615Z,50.90
2022-11-29T14:17:04.423Z,47.93
2022-11-29T14:19:34.477Z,48.60
2022-11-29T14:22:07.148Z,47.13
2022-11-29T14:24:37.661Z,43.73
2022-11-29T14:27:15.886Z,43.07
2022-11-29T14:29:52.691Z,42.10
2022-11-29T14:32:45.936Z,45.27
2022-11-29T14:35:13.055Z,43.17
2022-11-29T14:38:13.012Z,42.37
2022-11-29T14:40:42.688Z,41.10
2022-11-29T14:43:32.602Z,43.83
2022-11-29T14:46:16.533Z,40.80
2022-11-29T14:48:54.597Z,39.10
2022-11-29T14:51:22.752Z,38.93
2022-11-29T14:54:06.400Z,38.80
2022-11-29T14:56:34.936Z,37.63
2022-11-29T14:59:38.608Z,39.00
2022-11-29T15:02:27.732Z,36.90
2022-11-29T15:05:04.942Z,37.60
2022-11-29T15:07:33.069Z,37.00
2022-11-29T15:10:04.008Z,34.77
2022-11-29T15:12:36.248Z,38.13
2022-11-29T15:15:21.487Z,36.70
2022-11-29T15:18:06.697Z,39.17
2022-11-29T15:21:06.842Z,37.87
2022-11-29T15:23:41.592Z,38.73
2022-11-29T15:26:19.094Z,35.70
2022-11-29T15:28:45.946Z,36.37
2022-11-29T15:31:20.064Z,36.13
2022-11-29T15:33:49.130Z,40.23
2022-11-29T15:36:21.002Z,38.00
2022-11-29T15:38:53.560Z,37.30
2022-11-29T15:41:40.409Z,35.00
2022-11-29T15:44:19.400Z,35.70
2022-11-29T15:46:45.988Z,36.63
2022-11-29T15:49:24.003Z,36.37
2022-11-29T15:51:56.769Z,35.77
2022-11-29T15:54:29.912Z,33.53
2022-11-29T15:57:00.687Z,33.00
2022-11-29T15:59:33.193Z,34.87
2022-11-29T16:02:07.521Z,36.10
2022-11-29T16:04:43.587Z,40.23
2022-11-29T16:07:13.736Z,37.53
2022-11-29T16:09:44.412Z,35.10
2022-11-29T16:12:16.849Z,36.80
2022-11-29T16:14:56.425Z,39.13
2022-11-29T16:17:32.431Z,39.80
2022-11-29T16:20:24.976Z,37.07
2022-11-29T16:23:11.282Z,38.50
2022-11-29T16:25:59.351Z,42.93
2022-11-29T16:28:33.673Z,41.23
2022-11-29T16:31:00.518Z,43.27
2022-11-29T16:33:27.918Z,41.43
2022-11-29T16:36:25.074Z,41.43
2022-11-29T16:38:54.483Z,38.90
2022-11-29T16:41:38.250Z,43.40
2022-11-29T16:44:06.744Z,46.90
2022-11-29T16:46:39.219Z,43.30
2022-11-29T16:49:31.648Z,48.17
2022-11-29T16:51:58.390Z,72.73
2022-11-29T16:54:26.184Z,51.57
2022-11-29T16:56:54.422Z,41.07
2022-11-29T16:59:27.205Z,40.07
2022-11-29T17:01:56.665Z,45.80
2022-11-29T17:04:24.685Z,42.67
2022-11-29T17:06:53.596Z,46.97
2022-11-29T17:09:24.345Z,42.63
2022-11-29T17:11:51.629Z,40.73
2022-11-29T17:14:18.203Z,42.03
2022-11-29T17:16:44.964Z,39.33
2022-11-29T17:19:12.800Z,41.20
2022-11-29T17:21:39.882Z,40.80
2022-11-29T17:24:09.373Z,38.17
2022-11-29T17:26:35.981Z,40.90
2022-11-29T17:29:02.614Z,40.63
2022-11-29T17:31:30.030Z,40.17
2022-11-29T17:33:59.606Z,42.30
2022-11-29T17:36:26.362Z,40.53
2022-11-29T17:38:52.960Z,40.77
2022-11-29T17:41:22.783Z,38.60
2022-11-29T17:43:51.276Z,39.77
2022-11-29T17:46:21.549Z,41.90
2022-11-29T17:48:49.165Z,41.07
2022-11-29T17:51:49.871Z,37.73
2022-11-29T17:54:05.594Z,37.87
2022-11-29T17:56:32.379Z,40.93
2022-11-29T17:59:01.514Z,36.03
2022-11-29T18:01:30.975Z,40.23
2022-11-29T18:04:00.083Z,44.83
2022-11-29T18:06:28.922Z,40.27
2022-11-29T18:08:57.795Z,42.77
2022-11-29T18:11:46.993Z,43.57
2022-11-29T18:14:16.877Z,40.67
2022-11-29T18:16:45.265Z,44.67
2022-11-29T18:19:14.975Z,41.30
2022-11-29T18:21:41.749Z,42.33
2022-11-29T18:24:08.979Z,42.00
2022-11-29T18:26:36.922Z,41.43
2022-11-29T18:29:05.194Z,44.67
2022-11-29T18:31:34.758Z,42.80
2022-11-29T18:34:06.715Z,43.00
2022-11-29T18:36:39.345Z,46.33
2022-11-29T18:39:08.819Z,46.50
2022-11-29T18:41:35.768Z,48.00
2022-11-29T18:44:08.779Z,48.97
2022-11-29T18:46:37.396Z,59.40
2022-11-29T18:49:07.117Z,53.17
2022-11-29T18:51:35.022Z,44.13
2022-11-29T18:54:02.263Z,45.17
2022-11-29T18:56:31.190Z,49.20
2022-11-29T18:59:00.243Z,44.10
2022-11-29T19:01:29.463Z,44.40
2022-11-29T19:03:58.457Z,43.20
2022-11-29T19:06:28.020Z,41.07
2022-11-29T19:08:56.897Z,43.03
2022-11-29T19:11:24.699Z,42.03
2022-11-29T19:13:56.751Z,44.50
2022-11-29T19:16:25.429Z,61.90
2022-11-29T19:18:55.340Z,47.20
2022-11-29T19:21:23.614Z,42.77
2022-11-29T19:23:55.573Z,41.93
2022-11-29T19:26:25.094Z,42.67
2022-11-29T19:28:51.920Z,43.77
2022-11-29T19:31:20.333Z,41.17
2022-11-29T19:33:47.016Z,47.57
2022-11-29T19:36:33.919Z,44.97
2022-11-29T19:39:01.708Z,41.97
2022-11-29T19:41:30.660Z,47.37
2022-11-29T19:43:59.409Z,46.50
2022-11-29T19:46:31.635Z,46.70
2022-11-29T19:48:59.692Z,44.90
2022-11-29T19:51:27.881Z,48.10
2022-11-29T19:53:56.852Z,40.60
2022-11-29T19:56:23.824Z,43.87
2022-11-29T19:58:51.198Z,41.67
2022-11-29T20:01:20.293Z,43.80
2022-11-29T20:03:46.982Z,42.77
2022-11-29T20:06:14.127Z,47.07
2022-11-29T20:08:41.860Z,43.10
2022-11-29T20:11:17.418Z,45.20
2022-11-29T20:13:46.915Z,46.27
2022-11-29T20:16:19.940Z,42.43
2022-11-29T20:18:51.155Z,42.60
2022-11-29T20:21:22.981Z,42.27
2022-11-29T20:23:54.083Z,43.60
2022-11-29T20:26:21.047Z,44.23
2022-11-29T20:28:48.003Z,43.27
2022-11-29T20:31:21.131Z,42.40
2022-11-29T20:33:48.535Z,43.83
2022-11-29T20:36:45.917Z,43.57
2022-11-29T20:39:40.676Z,42.57
2022-11-29T20:42:16.204Z,42.17
2022-11-29T20:44:51.839Z,43.87
2022-11-29T20:47:21.105Z,41.07
2022-11-29T20:49:48.502Z,42.90
2022-11-29T20:52:37.331Z,41.30
2022-11-29T20:55:04.981Z,43.70
2022-11-29T20:57:31.635Z,44.07
2022-11-29T20:59:59.604Z,42.17
2022-11-29T21:02:26.344Z,46.47
2022-11-29T21:04:52.958Z,42.70
2022-11-29T21:07:19.677Z,44.83
2022-11-29T21:09:46.371Z,45.70
2022-11-29T21:12:13.481Z,45.77
2022-11-29T21:14:40.365Z,44.93
2022-11-29T21:17:08.424Z,44.10
2022-11-29T21:19:35.589Z,42.30
2022-11-29T21:22:27.895Z,44.97
2022-11-29T21:25:00.251Z,45.40
2022-11-29T21:27:30.941Z,47.27
2022-11-29T21:29:57.920Z,42.20
2022-11-29T21:32:26.127Z,50.40
2022-11-29T21:34:52.972Z,51.97
2022-11-29T21:37:22.048Z,45.20
2022-11-29T21:39:51.376Z,42.07
2022-11-29T21:42:18.215Z,48.07
2022-11-29T21:44:45.264Z,44.83
2022-11-29T21:47:12.802Z,43.17
2022-11-29T21:49:39.937Z,48.33
2022-11-29T21:52:06.856Z,45.33
2022-11-29T21:54:33.591Z,38.17
2022-11-29T21:57:01.598Z,37.70
2022-11-29T21:59:28.268Z,37.27
2022-11-29T22:01:55.081Z,34.90
2022-11-29T22:04:21.823Z,34.77
2022-11-29T22:06:48.480Z,33.60
2022-11-29T22:09:15.080Z,33.30
2022-11-29T22:11:42.313Z,33.87
2022-11-29T22:14:14.968Z,29.90
2022-11-29T22:16:54.817Z,29.60
2022-11-29T22:19:24.103Z,28.80
2022-11-29T22:21:52.763Z,32.77
2022-11-29T22:24:21.440Z,30.20
2022-11-29T22:26:49.012Z,31.00
2022-11-29T22:29:16.139Z,29.10
2022-11-29T22:31:44.500Z,30.30
2022-11-29T22:34:11.618Z,31.50
2022-11-29T22:36:39.321Z,29.13
2022-11-29T22:39:06.740Z,29.23
2022-11-29T22:41:34.216Z,30.03
2022-11-29T22:44:00.993Z,28.10
2022-11-29T22:46:28.622Z,31.27
2022-11-29T22:48:57.475Z,30.40
2022-11-29T22:51:35.890Z,29.90
2022-11-29T22:54:05.291Z,29.33
2022-11-29T22:56:37.548Z,30.03
2022-11-29T22:59:04.527Z,29.30
2022-11-29T23:01:33.538Z,28.17
2022-11-29T23:04:03.815Z,28.27
2022-11-29T23:06:32.817Z,28.30
2022-11-29T23:09:05.406Z,26.33
2022-11-29T23:11:32.525Z,27.07
2022-11-29T23:14:00.270Z,28.70
2022-11-29T23:16:29.423Z,28.30
2022-11-29T23:19:00.821Z,31.10
2022-11-29T23:21:32.721Z,34.07
2022-11-29T23:24:02.648Z,36.23
2022-11-29T23:26:40.657Z,37.83
2022-11-29T23:29:10.340Z,37.00
2022-11-29T23:31:37.236Z,40.30
2022-11-29T23:34:04.590Z,45.40
2022-11-29T23:36:31.379Z,45.67
2022-11-29T23:38:58.008Z,50.87
2022-11-29T23:41:24.885Z,47.17
2022-11-29T23:43:51.488Z,52.60
2022-11-29T23:46:21.349Z,48.67
2022-11-29T23:48:48.765Z,52.13
2022-11-29T23:51:16.382Z,70.63
2022-11-29T23:53:43.384Z,58.47
2022-11-29T23:56:15.359Z,82.67
2022-11-29T23:58:43.006Z,97.40
